createdAt,value
2023-02-13T00:02:20.727Z,51.84
2023-02-13T00:07:22.843Z,51.85
2023-02-13T00:12:25.274Z,51.90
2023-02-13T00:17:27.787Z,51.94
2023-02-13T00:22:29.975Z,52.01
2023-02-13T00:27:32.189Z,52.19
2023-02-13T00:32:34.833Z,52.31
2023-02-13T00:37:37.037Z,52.24
2023-02-13T00:42:39.218Z,52.26
2023-02-13T00:47:41.454Z,52.29
2023-02-13T00:52:44.445Z,52.47
2023-02-13T00:57:48.022Z,52.11
2023-02-13T01:02:50.102Z,52.14
2023-02-13T01:07:53.613Z,52.08
2023-02-13T01:12:55.785Z,51.91
2023-02-13T01:17:58.084Z,52.09
2023-02-13T01:23:01.454Z,52.19
2023-02-13T01:28:03.684Z,52.05
2023-02-13T01:33:05.769Z,52.31
2023-02-13T01:38:08.630Z,52.44
2023-02-13T01:43:12.900Z,52.43
2023-02-13T01:48:22.842Z,52.67
2023-02-13T01:53:44.496Z,52.24
2023-02-13T01:58:51.728Z,52.31
2023-02-13T02:03:59.982Z,52.26
2023-02-13T02:09:14.318Z,52.07
2023-02-13T02:14:16.646Z,52.11
2023-02-13T02:19:51.058Z,52.01
2023-02-13T02:25:14.497Z,51.96
2023-02-13T02:30:37.301Z,51.86
2023-02-13T02:36:12.159Z,51.94
2023-02-13T02:41:41.890Z,51.81
2023-02-13T02:47:27.246Z,52.11
2023-02-13T02:52:58.575Z,52.14
2023-02-13T02:59:04.545Z,52.38
2023-02-13T03:04:51.379Z,52.46
2023-02-13T03:10:16.177Z,52.21
2023-02-13T03:15:18.307Z,52.41
2023-02-13T03:21:04.521Z,52.38
2023-02-13T03:26:45.693Z,52.08
2023-02-13T03:32:08.230Z,52.19
2023-02-13T03:37:29.416Z,52.18
2023-02-13T03:42:40.227Z,52.01
2023-02-13T03:47:45.237Z,52.22
2023-02-13T03:53:02.296Z,52.21
2023-02-13T03:58:34.499Z,52.29
2023-02-13T04:03:45.262Z,52.38
2023-02-13T04:08:47.524Z,52.46
2023-02-13T04:14:01.784Z,52.44
2023-02-13T04:19:06.658Z,52.49
2023-02-13T04:24:09.697Z,52.25
2023-02-13T04:29:11.916Z,52.02
2023-02-13T04:34:14.058Z,51.99
2023-02-13T04:39:16.370Z,52.13
2023-02-13T04:44:18.438Z,52.33
2023-02-13T04:49:20.537Z,52.38
2023-02-13T04:54:22.671Z,52.33
2023-02-13T04:59:24.769Z,52.23
2023-02-13T05:04:27.355Z,52.02
2023-02-13T05:09:29.517Z,51.92
2023-02-13T05:14:31.707Z,52.17
2023-02-13T05:19:33.712Z,52.32
2023-02-13T05:24:35.863Z,52.25
2023-02-13T05:29:37.957Z,52.27
2023-02-13T05:34:40.033Z,51.81
2023-02-13T05:39:42.342Z,51.78
2023-02-13T05:44:44.542Z,51.63
2023-02-13T05:49:46.718Z,52.03
2023-02-13T05:54:48.938Z,52.05
2023-02-13T05:59:51.187Z,52.08
2023-02-13T06:04:53.314Z,52.41
2023-02-13T06:09:55.502Z,52.22
2023-02-13T06:14:57.665Z,51.96
2023-02-13T06:19:59.845Z,51.91
2023-02-13T06:25:02.031Z,52.02
2023-02-13T06:30:04.473Z,52.15
2023-02-13T06:35:07.218Z,52.16
2023-02-13T06:40:11.146Z,51.93
2023-02-13T06:45:14.361Z,52.06
2023-02-13T06:50:17.546Z,51.90
2023-02-13T06:55:21.140Z,51.76
2023-02-13T07:00:26.099Z,51.99
2023-02-13T07:05:28.960Z,52.04
2023-02-13T07:10:31.119Z,51.97
2023-02-13T07:15:35.125Z,51.73
2023-02-13T07:20:37.602Z,51.67
2023-02-13T07:25:39.791Z,51.54
2023-02-13T07:30:41.927Z,51.60
2023-02-13T07:35:51.802Z,51.80
2023-02-13T07:40:53.848Z,51.93
2023-02-13T07:46:00.408Z,51.76
2023-02-13T07:51:05.988Z,52.01
2023-02-13T07:56:09.652Z,51.71
2023-02-13T08:01:14.433Z,51.57
2023-02-13T08:06:17.326Z,51.67
2023-02-13T08:11:52.233Z,51.66
2023-02-13T08:16:55.487Z,51.79
2023-02-13T08:21:57.929Z,51.99
2023-02-13T08:27:00.068Z,51.76
2023-02-13T08:32:02.205Z,51.75
2023-02-13T08:37:05.228Z,51.57
2023-02-13T08:42:07.672Z,51.73
2023-02-13T08:47:10.294Z,51.74
2023-02-13T08:52:13.787Z,51.91
2023-02-13T08:57:15.933Z,52.11
2023-02-13T09:02:18.016Z,52.02
2023-02-13T09:07:20.130Z,51.86
2023-02-13T09:12:22.340Z,51.80
2023-02-13T09:17:24.509Z,51.45
2023-02-13T09:22:26.633Z,51.56
2023-02-13T09:27:28.716Z,51.70
2023-02-13T09:32:30.873Z,52.08
2023-02-13T09:37:33.325Z,51.88
2023-02-13T09:42:37.218Z,51.90
2023-02-13T09:47:44.177Z,51.95
2023-02-13T09:52:47.186Z,51.68
2023-02-13T09:58:05.919Z,51.83
2023-02-13T10:03:31.045Z,51.57
2023-02-13T10:08:42.886Z,51.69
2023-02-13T10:14:15.557Z,51.60
2023-02-13T10:19:30.485Z,51.72
2023-02-13T10:24:43.701Z,51.86
2023-02-13T10:30:09.424Z,51.93
2023-02-13T10:35:28.406Z,51.90
2023-02-13T10:40:37.820Z,52.05
2023-02-13T10:46:04.593Z,52.04
2023-02-13T10:51:51.441Z,52.02
2023-02-13T10:56:59.067Z,52.17
2023-02-13T11:02:28.262Z,52.42
2023-02-13T11:07:31.660Z,52.27
2023-02-13T11:12:34.550Z,51.98
2023-02-13T11:17:40.935Z,51.96
2023-02-13T11:22:43.403Z,52.14
2023-02-13T11:27:46.598Z,52.00
2023-02-13T11:33:00.126Z,51.79
2023-02-13T11:38:20.526Z,51.95
2023-02-13T11:43:30.332Z,51.86
2023-02-13T11:48:32.717Z,51.86
2023-02-13T11:53:40.422Z,51.91
2023-02-13T11:58:43.791Z,52.01
2023-02-13T12:04:02.874Z,52.03
2023-02-13T12:09:06.473Z,52.21
2023-02-13T12:14:14.425Z,52.27
2023-02-13T12:19:29.997Z,52.05
2023-02-13T12:24:53.437Z,52.23
2023-02-13T12:30:57.490Z,52.17
2023-02-13T12:36:27.565Z,51.99
2023-02-13T12:41:42.280Z,51.94
2023-02-13T12:47:16.668Z,52.04
2023-02-13T12:52:36.626Z,52.17
2023-02-13T12:58:03.675Z,51.89
2023-02-13T13:03:35.702Z,52.13
2023-02-13T13:09:07.790Z,52.29
2023-02-13T13:14:38.453Z,52.46
2023-02-13T13:19:56.650Z,52.47
2023-02-13T13:25:01.380Z,52.74
2023-02-13T13:30:25.493Z,53.00
2023-02-13T13:35:28.813Z,52.98
2023-02-13T13:40:40.042Z,53.19
2023-02-13T13:46:04.105Z,52.93
2023-02-13T13:51:18.677Z,52.91
2023-02-13T13:56:20.792Z,53.08
2023-02-13T14:01:26.080Z,53.00
2023-02-13T14:06:46.331Z,53.18
2023-02-13T14:11:48.458Z,52.88
2023-02-13T14:16:50.934Z,52.78
2023-02-13T14:21:54.915Z,53.26
2023-02-13T14:27:05.328Z,53.05
2023-02-13T14:32:18.237Z,52.92
2023-02-13T14:37:30.420Z,52.80
2023-02-13T14:42:34.337Z,53.04
2023-02-13T14:47:43.097Z,53.04
2023-02-13T14:52:48.071Z,53.13
2023-02-13T14:57:54.490Z,53.17
2023-02-13T15:03:01.509Z,53.20
2023-02-13T15:08:15.042Z,53.53
2023-02-13T15:13:41.148Z,53.25
2023-02-13T15:18:49.155Z,53.20
2023-02-13T15:23:55.766Z,53.17
2023-02-13T15:29:17.488Z,52.99
2023-02-13T15:34:32.420Z,52.87
2023-02-13T15:39:34.682Z,52.80
2023-02-13T15:44:38.598Z,52.68
2023-02-13T15:49:45.796Z,52.77
2023-02-13T15:54:51.512Z,52.63
2023-02-13T15:59:55.780Z,52.79
2023-02-13T16:04:59.068Z,52.87
2023-02-13T16:10:18.037Z,52.97
2023-02-13T16:15:22.115Z,52.84
2023-02-13T16:20:29.953Z,52.93
2023-02-13T16:25:38.943Z,52.88
2023-02-13T16:30:43.831Z,52.83
2023-02-13T16:35:59.484Z,52.57
2023-02-13T16:41:19.854Z,52.39
2023-02-13T16:46:33.875Z,52.34
2023-02-13T16:51:59.763Z,52.54
2023-02-13T16:57:17.799Z,52.45
2023-02-13T17:02:24.444Z,52.59
2023-02-13T17:07:29.249Z,52.76
2023-02-13T17:12:34.804Z,52.75
2023-02-13T17:17:36.871Z,52.83
2023-02-13T17:22:50.785Z,52.63
2023-02-13T17:27:55.951Z,52.86
2023-02-13T17:33:12.168Z,52.56
2023-02-13T17:38:14.461Z,52.33
2023-02-13T17:43:18.856Z,52.43
2023-02-13T17:48:21.257Z,52.28
2023-02-13T17:53:30.194Z,52.56
2023-02-13T17:58:32.321Z,52.28
2023-02-13T18:03:34.408Z,52.53
2023-02-13T18:08:36.478Z,52.22
2023-02-13T18:13:38.609Z,52.34
2023-02-13T18:18:40.850Z,52.19
2023-02-13T18:23:42.978Z,52.37
2023-02-13T18:28:45.131Z,52.25
2023-02-13T18:33:47.509Z,52.53
2023-02-13T18:38:51.600Z,52.47
2023-02-13T18:43:57.589Z,52.75
2023-02-13T18:48:59.708Z,52.94
2023-02-13T18:54:01.920Z,52.83
2023-02-13T18:59:04.096Z,52.72
2023-02-13T19:04:06.784Z,52.54
2023-02-13T19:09:09.169Z,52.29
2023-02-13T19:14:13.847Z,52.36
2023-02-13T19:19:15.971Z,52.42
2023-02-13T19:24:18.830Z,52.58
2023-02-13T19:29:20.957Z,52.78
2023-02-13T19:34:22.997Z,52.55
2023-02-13T19:39:25.179Z,52.77
2023-02-13T19:44:27.279Z,52.75
2023-02-13T19:49:29.373Z,52.91
2023-02-13T19:54:31.762Z,52.69
2023-02-13T19:59:33.883Z,52.70
2023-02-13T20:04:37.065Z,52.48
2023-02-13T20:09:40.766Z,52.65
2023-02-13T20:14:42.809Z,52.44
2023-02-13T20:19:44.966Z,52.49
2023-02-13T20:24:47.446Z,52.41
2023-02-13T20:29:50.180Z,52.26
2023-02-13T20:34:59.572Z,52.37
2023-02-13T20:40:02.668Z,52.35
2023-02-13T20:45:05.359Z,52.48
2023-02-13T20:50:07.792Z,52.33
2023-02-13T20:55:09.972Z,52.37
2023-02-13T21:00:13.358Z,52.41
2023-02-13T21:05:15.499Z,52.22
2023-02-13T21:10:18.190Z,52.30
2023-02-13T21:15:20.380Z,52.11
2023-02-13T21:20:22.397Z,52.35
2023-02-13T21:25:24.457Z,52.58
2023-02-13T21:30:26.706Z,52.39
2023-02-13T21:35:29.005Z,52.53
2023-02-13T21:40:31.049Z,52.55
2023-02-13T21:45:33.149Z,52.69
2023-02-13T21:50:35.277Z,52.73
2023-02-13T21:55:37.466Z,52.56
2023-02-13T22:00:39.668Z,52.48
2023-02-13T22:05:48.618Z,52.40
2023-02-13T22:10:59.052Z,52.44
2023-02-13T22:16:04.847Z,52.24
2023-02-13T22:21:09.210Z,52.43
2023-02-13T22:26:24.844Z,52.66
2023-02-13T22:31:27.250Z,52.68
2023-02-13T22:36:29.536Z,52.56
2023-02-13T22:41:31.698Z,52.81
2023-02-13T22:46:34.472Z,52.95
2023-02-13T22:51:37.516Z,52.61
2023-02-13T22:56:39.756Z,52.65
2023-02-13T23:01:41.849Z,52.42
2023-02-13T23:06:43.962Z,52.19
2023-02-13T23:12:04.621Z,52.46
2023-02-13T23:17:25.277Z,52.51
2023-02-13T23:22:27.385Z,52.79
2023-02-13T23:27:29.445Z,52.31
2023-02-13T23:32:31.676Z,52.46
2023-02-13T23:37:33.894Z,52.42
2023-02-13T23:42:36.131Z,52.02
2023-02-13T23:47:38.578Z,52.16
2023-02-13T23:52:40.678Z,52.42
2023-02-13T23:57:42.905Z,52.42
